Time;durP1;ratioP1;P1;durP2;ratioP2;P2;SDS_P1;SDS_P2;PMS_P1;PMS_P2;Temp;Humidity;BMP_temperature;BMP_pressure;BME280_temperature;BME280_humidity;BME280_pressure;Samples;Min_cycle;Max_cycle;Signal;HPM_P1;HPM_P2
2021/11/03 00:01:55;;;;;;;27.98;19.02;;;6.40;99.90;;;;;;4856126;29;20059;-81
2021/11/03 00:04:21;;;;;;;28.20;19.02;;;6.40;99.90;;;;;;4871017;29;20064;-82
2021/11/03 00:06:48;;;;;;;29.08;19.45;;;6.40;99.90;;;;;;4877178;29;20055;-82
2021/11/03 00:09:14;;;;;;;27.52;18.58;;;6.40;99.90;;;;;;4875085;29;20066;-82
2021/11/03 00:11:41;;;;;;;29.40;19.77;;;6.50;99.90;;;;;;4854023;29;20041;-81
2021/11/03 00:14:08;;;;;;;28.40;19.20;;;6.40;99.90;;;;;;4890187;29;20130;-82
2021/11/03 00:16:34;;;;;;;29.63;19.60;;;6.40;99.90;;;;;;4841376;29;20040;-82
2021/11/03 00:19:01;;;;;;;28.10;19.35;;;6.40;99.90;;;;;;4881091;29;20052;-81
2021/11/03 00:21:27;;;;;;;29.52;20.50;;;6.40;99.90;;;;;;4870208;29;20036;-81
2021/11/03 00:23:53;;;;;;;28.73;18.13;;;6.50;99.90;;;;;;4865265;29;20045;-80
2021/11/03 00:26:20;;;;;;;30.58;19.95;;;6.60;99.90;;;;;;4852168;29;20064;-80
2021/11/03 00:28:47;;;;;;;31.33;20.33;;;6.60;99.90;;;;;;4858408;29;20044;-80
2021/11/03 00:31:14;;;;;;;39.55;20.10;;;6.70;99.90;;;;;;4859402;29;20079;-80
2021/11/03 00:33:40;;;;;;;31.60;19.88;;;6.70;99.90;;;;;;4889499;29;20047;-80
2021/11/03 00:36:07;;;;;;;35.60;20.65;;;6.80;99.90;;;;;;4893281;29;20041;-79
2021/11/03 00:38:34;;;;;;;36.30;19.65;;;6.80;99.90;;;;;;4857400;29;20051;-81
2021/11/03 00:41:00;;;;;;;34.38;19.17;;;6.80;99.90;;;;;;4871550;29;20063;-80
2021/11/03 00:43:45;;;;;;;31.83;17.42;;;6.90;99.90;;;;;;4868637;29;20024;-82
2021/11/03 00:46:12;;;;;;;36.55;18.25;;;6.90;99.90;;;;;;4856505;29;20029;-82
2021/11/03 00:48:38;;;;;;;32.33;18.38;;;6.90;99.90;;;;;;4877984;29;20036;-82
2021/11/03 00:51:05;;;;;;;37.95;18.92;;;6.90;99.90;;;;;;4861936;29;20040;-82
2021/11/03 00:53:32;;;;;;;42.65;19.08;;;6.90;99.90;;;;;;4887722;29;20036;-82
2021/11/03 00:55:58;;;;;;;28.80;18.70;;;7.00;99.90;;;;;;4874836;29;20044;-82
2021/11/03 00:58:24;;;;;;;67.75;21.52;;;7.00;99.90;;;;;;4864936;29;20044;-82
2021/11/03 01:00:51;;;;;;;41.00;19.52;;;7.00;99.90;;;;;;4855806;29;20033;-82
2021/11/03 01:03:36;;;;;;;35.28;19.58;;;7.00;99.90;;;;;;4890970;29;20044;-82
2021/11/03 01:06:04;;;;;;;39.28;17.98;;;7.00;99.90;;;;;;4855594;29;20043;-82
2021/11/03 01:08:32;;;;;;;35.83;18.38;;;7.00;99.90;;;;;;4859385;29;20041;-82
2021/11/03 01:10:59;;;;;;;37.03;18.48;;;7.00;99.90;;;;;;4877035;29;20037;-82
2021/11/03 01:13:26;;;;;;;57.15;18.80;;;7.00;99.90;;;;;;4857830;29;20047;-82
2021/11/03 01:15:57;;;;;;;27.17;16.00;;;7.00;99.90;;;;;;4872966;29;20037;-82
2021/11/03 01:18:28;;;;;;;36.22;17.88;;;7.00;99.90;;;;;;4859234;29;20039;-82
2021/11/03 01:20:56;;;;;;;29.15;17.38;;;7.00;99.90;;;;;;4873258;29;20037;-82
2021/11/03 01:23:26;;;;;;;28.08;17.75;;;6.90;99.90;;;;;;4907745;29;20032;-82
2021/11/03 01:25:54;;;;;;;34.95;18.27;;;6.90;99.90;;;;;;4858990;29;20397;-82
2021/11/03 01:28:21;;;;;;;29.90;19.40;;;6.90;99.90;;;;;;4873934;29;20049;-82
2021/11/03 01:30:48;;;;;;;46.80;18.80;;;6.90;99.90;;;;;;4854123;29;20041;-82
2021/11/03 01:33:17;;;;;;;34.67;18.90;;;6.90;99.90;;;;;;4843883;29;20040;-82
2021/11/03 01:35:47;;;;;;;29.92;19.33;;;6.90;99.90;;;;;;4875463;29;20063;-82
2021/11/03 01:38:14;;;;;;;38.10;17.73;;;6.90;99.90;;;;;;4872895;29;20503;-82
2021/11/03 01:40:45;;;;;;;32.67;17.63;;;6.90;99.90;;;;;;4858814;29;20071;-82
2021/11/03 01:43:41;;;;;;;52.25;17.83;;;6.80;99.90;;;;;;4859694;29;20036;-83
2021/11/03 01:46:44;;;;;;;28.33;17.92;;;6.70;99.90;;;;;;4871596;29;20032;-82
2021/11/03 01:49:23;;;;;;;42.15;18.10;;;6.70;99.90;;;;;;4874769;29;20037;-83
2021/11/03 01:52:04;;;;;;;36.78;19.85;;;6.60;99.90;;;;;;4890393;29;20063;-82
2021/11/03 01:54:40;;;;;;;41.83;20.83;;;6.60;99.90;;;;;;4892580;29;20039;-82
2021/11/03 01:57:13;;;;;;;35.80;19.88;;;6.60;99.90;;;;;;4873219;29;20040;-82
2021/11/03 01:59:45;;;;;;;40.40;20.35;;;6.60;99.90;;;;;;4875355;29;20138;-82
2021/11/03 02:02:17;;;;;;;52.42;19.55;;;6.50;99.90;;;;;;4899026;29;20415;-82
2021/11/03 02:04:45;;;;;;;38.90;19.02;;;6.50;99.90;;;;;;4891083;29;20047;-82
2021/11/03 02:07:17;;;;;;;47.33;20.58;;;6.60;99.90;;;;;;4876170;29;20071;-82
2021/11/03 02:09:44;;;;;;;36.55;19.10;;;6.60;99.90;;;;;;4905852;29;20051;-82
2021/11/03 02:12:20;;;;;;;38.28;19.30;;;6.50;99.90;;;;;;4879274;29;20068;-83
2021/11/03 02:14:49;;;;;;;44.45;15.00;;;6.50;99.90;;;;;;4888796;29;20036;-82
2021/11/03 02:17:17;;;;;;;42.95;18.13;;;6.40;99.90;;;;;;4888962;29;20105;-82
2021/11/03 02:19:45;;;;;;;43.40;17.45;;;6.40;99.90;;;;;;4880138;29;20037;-82
2021/11/03 02:22:24;;;;;;;39.03;16.80;;;6.40;99.90;;;;;;4902195;29;20031;-82
2021/11/03 02:24:54;;;;;;;49.75;17.50;;;6.40;99.90;;;;;;4911232;29;20075;-82
2021/11/03 02:27:27;;;;;;;40.90;15.98;;;6.30;99.90;;;;;;4905859;29;20028;-82
2021/11/03 02:29:53;;;;;;;38.88;15.23;;;6.30;99.90;;;;;;4888614;29;20040;-82
2021/11/03 02:32:29;;;;;;;38.45;14.60;;;6.30;99.90;;;;;;4885833;29;20048;-82
2021/11/03 02:34:56;;;;;;;31.23;15.48;;;6.30;99.90;;;;;;4910701;29;20036;-82
2021/11/03 02:37:29;;;;;;;36.25;17.88;;;6.30;99.90;;;;;;4888979;29;20408;-82
2021/11/03 02:40:20;;;;;;;30.00;16.75;;;6.20;99.90;;;;;;4874256;29;20044;-83
2021/11/03 02:42:51;;;;;;;48.47;19.00;;;6.30;99.90;;;;;;4903120;29;20043;-83
2021/11/03 02:45:46;;;;;;;39.45;19.40;;;6.30;99.90;;;;;;4907351;29;20055;-83
2021/11/03 02:48:15;;;;;;;38.03;17.60;;;6.30;99.90;;;;;;4878632;29;20396;-82
2021/11/03 02:51:03;;;;;;;37.22;18.88;;;6.30;99.90;;;;;;4905527;29;20480;-82
2021/11/03 02:53:35;;;;;;;49.40;17.52;;;6.30;99.90;;;;;;4889191;29;20040;-82
2021/11/03 02:56:03;;;;;;;30.75;15.82;;;6.30;99.90;;;;;;4894590;29;20050;-82
2021/11/03 02:58:30;;;;;;;35.92;15.07;;;6.20;99.90;;;;;;4873520;29;20041;-82
2021/11/03 03:01:12;;;;;;;33.90;16.25;;;6.20;99.90;;;;;;4891618;29;20043;-82
2021/11/03 03:03:39;;;;;;;30.73;16.73;;;6.20;99.90;;;;;;4874833;29;20028;-82
2021/11/03 03:06:10;;;;;;;40.20;16.02;;;6.20;99.90;;;;;;4904805;29;20062;-83
2021/11/03 03:08:37;;;;;;;29.08;16.55;;;6.20;99.90;;;;;;4890630;29;20475;-83
2021/11/03 03:11:04;;;;;;;32.95;15.75;;;6.10;99.90;;;;;;4889533;29;20055;-82
2021/11/03 03:13:32;;;;;;;35.30;16.40;;;6.10;99.90;;;;;;4889018;29;20051;-82
2021/11/03 03:15:59;;;;;;;35.28;16.65;;;6.10;99.90;;;;;;4886747;29;20392;-83
2021/11/03 03:18:25;;;;;;;30.42;16.92;;;6.10;99.90;;;;;;4872012;29;20056;-83
2021/11/03 03:20:52;;;;;;;35.70;16.92;;;6.10;99.90;;;;;;4875708;29;20191;-80
2021/11/03 03:23:18;;;;;;;36.97;16.30;;;6.10;99.90;;;;;;4900932;29;20048;-80
2021/11/03 03:25:46;;;;;;;39.75;16.83;;;6.10;99.90;;;;;;4908146;29;20036;-80
2021/11/03 03:28:15;;;;;;;38.72;16.45;;;6.10;99.90;;;;;;4889464;29;20058;-80
2021/11/03 03:30:43;;;;;;;37.95;16.58;;;6.10;99.90;;;;;;4907059;29;20054;-80
2021/11/03 03:33:10;;;;;;;61.67;17.48;;;6.10;99.90;;;;;;4872945;29;20063;-80
2021/11/03 03:35:37;;;;;;;106.28;19.38;;;6.10;99.90;;;;;;4892515;29;20506;-80
2021/11/03 03:38:04;;;;;;;40.28;15.57;;;6.10;99.90;;;;;;4888337;29;20063;-79
2021/11/03 03:40:32;;;;;;;39.85;15.50;;;6.10;99.90;;;;;;4875913;29;20644;-80
2021/11/03 03:42:59;;;;;;;81.47;15.88;;;6.10;99.90;;;;;;4886788;29;20043;-79
2021/11/03 03:45:26;;;;;;;39.38;14.00;;;6.10;99.90;;;;;;4888570;29;20036;-80
2021/11/03 03:47:55;;;;;;;34.97;14.25;;;6.10;99.90;;;;;;4886845;29;20490;-80
2021/11/03 03:50:21;;;;;;;40.03;14.00;;;6.10;99.90;;;;;;4899394;29;20040;-79
2021/11/03 03:52:48;;;;;;;27.70;14.68;;;6.10;99.90;;;;;;4872371;29;20380;-80
2021/11/03 03:55:15;;;;;;;25.85;14.25;;;6.10;99.90;;;;;;4895466;29;20044;-82
2021/11/03 03:57:42;;;;;;;31.05;16.35;;;6.10;99.90;;;;;;4857873;29;20057;-82
2021/11/03 04:00:17;;;;;;;46.15;15.35;;;6.10;99.90;;;;;;4885868;29;20048;-82
2021/11/03 04:02:49;;;;;;;31.55;13.85;;;6.10;99.90;;;;;;4905329;29;20048;-82
2021/11/03 04:05:59;;;;;;;23.25;14.25;;;6.10;99.90;;;;;;4886667;29;20051;-82
2021/11/03 04:08:26;;;;;;;21.30;13.10;;;6.10;99.90;;;;;;4901967;29;20046;-82
2021/11/03 04:10:53;;;;;;;32.42;14.85;;;6.10;99.90;;;;;;4886375;29;20047;-82
2021/11/03 04:13:20;;;;;;;35.25;14.23;;;6.10;99.90;;;;;;4873873;29;20040;-82
2021/11/03 04:15:48;;;;;;;29.65;13.50;;;6.10;99.90;;;;;;4858647;29;20428;-82
2021/11/03 04:18:14;;;;;;;32.30;14.55;;;6.10;99.90;;;;;;4889533;29;20055;-82
2021/11/03 04:20:41;;;;;;;35.45;15.75;;;6.10;99.90;;;;;;4872123;29;20515;-83
2021/11/03 04:23:08;;;;;;;29.80;14.70;;;6.10;99.90;;;;;;4857385;29;20039;-82
2021/11/03 04:25:35;;;;;;;40.40;14.55;;;6.10;99.90;;;;;;4872588;29;20044;-82
2021/11/03 04:28:03;;;;;;;73.85;17.20;;;6.10;99.90;;;;;;4877474;29;20047;-82
2021/11/03 04:30:31;;;;;;;32.85;12.10;;;6.10;99.90;;;;;;4888667;29;20038;-82
2021/11/03 04:32:58;;;;;;;25.90;14.48;;;6.00;99.90;;;;;;4885411;29;20693;-82
2021/11/03 04:35:27;;;;;;;34.92;14.93;;;6.00;99.90;;;;;;4895881;29;20040;-82
2021/11/03 04:37:54;;;;;;;25.55;15.52;;;6.00;99.90;;;;;;4903317;29;20036;-82
2021/11/03 04:40:22;;;;;;;22.17;15.27;;;6.00;99.90;;;;;;4903032;29;20400;-82
2021/11/03 04:42:49;;;;;;;26.02;16.10;;;5.90;99.90;;;;;;4906279;29;20036;-82
2021/11/03 04:45:17;;;;;;;23.02;16.42;;;5.90;99.90;;;;;;4856851;29;20040;-82
2021/11/03 04:47:47;;;;;;;32.58;15.90;;;5.90;99.90;;;;;;4872926;29;20044;-82
2021/11/03 04:50:28;;;;;;;39.88;16.02;;;5.90;99.90;;;;;;4878257;29;20044;-82
2021/11/03 04:52:55;;;;;;;30.35;14.27;;;5.90;99.90;;;;;;4887145;29;20032;-81
2021/11/03 04:55:22;;;;;;;36.38;14.35;;;5.90;99.90;;;;;;4888626;29;20032;-82
2021/11/03 04:57:49;;;;;;;25.60;12.63;;;5.90;99.90;;;;;;4887515;29;21046;-82
2021/11/03 05:00:24;;;;;;;27.48;14.07;;;5.80;99.90;;;;;;4906623;29;20040;-81
2021/11/03 05:02:55;;;;;;;26.33;12.60;;;5.80;99.90;;;;;;4905030;29;20047;-81
2021/11/03 05:05:23;;;;;;;25.38;14.07;;;5.70;99.90;;;;;;4903301;29;21214;-81
2021/11/03 05:07:54;;;;;;;26.67;16.45;;;5.70;99.90;;;;;;4890250;29;20038;-81
2021/11/03 05:10:23;;;;;;;22.75;14.20;;;5.70;99.90;;;;;;4895736;29;20044;-81
2021/11/03 05:12:51;;;;;;;50.72;16.40;;;5.80;99.90;;;;;;4901593;29;20036;-78
2021/11/03 05:15:19;;;;;;;43.03;14.75;;;5.80;99.90;;;;;;4876403;29;20056;-78
2021/11/03 05:17:47;;;;;;;36.58;15.32;;;5.80;99.90;;;;;;4874065;29;20039;-78
2021/11/03 05:20:16;;;;;;;37.53;14.45;;;5.80;99.90;;;;;;4911577;29;20047;-78
2021/11/03 05:22:45;;;;;;;33.80;13.50;;;5.80;99.90;;;;;;4897532;29;20028;-78
2021/11/03 05:25:18;;;;;;;57.40;14.63;;;5.70;99.90;;;;;;4899756;29;20043;-78
2021/11/03 05:27:45;;;;;;;36.10;13.55;;;5.70;99.90;;;;;;4880249;29;20028;-79
2021/11/03 05:30:13;;;;;;;39.50;15.93;;;5.70;99.90;;;;;;4869944;29;20070;-79
2021/11/03 05:32:39;;;;;;;29.33;15.65;;;5.70;99.90;;;;;;4898922;29;20052;-79
2021/11/03 05:35:06;;;;;;;29.02;15.13;;;5.70;99.90;;;;;;4868033;29;20036;-79
2021/11/03 05:37:35;;;;;;;26.77;15.75;;;5.70;99.90;;;;;;4867952;29;20060;-79
2021/11/03 05:40:08;;;;;;;35.40;14.30;;;5.70;99.90;;;;;;4881828;29;20036;-79
2021/11/03 05:42:34;;;;;;;32.25;15.13;;;5.80;99.90;;;;;;4899601;29;20051;-79
2021/11/03 05:45:01;;;;;;;45.35;14.40;;;5.80;99.90;;;;;;4885214;29;20039;-79
2021/11/03 05:47:29;;;;;;;36.53;13.48;;;5.80;99.90;;;;;;4900772;29;20036;-79
2021/11/03 05:49:59;;;;;;;28.42;14.07;;;5.80;99.90;;;;;;4897117;29;20040;-79
2021/11/03 05:52:26;;;;;;;35.35;12.93;;;5.80;99.90;;;;;;4901115;29;20040;-79
2021/11/03 05:54:53;;;;;;;24.42;13.30;;;5.70;99.90;;;;;;4867768;29;20077;-79
2021/11/03 05:57:27;;;;;;;41.75;14.73;;;5.70;99.90;;;;;;4900057;29;20120;-78
2021/11/03 05:59:54;;;;;;;30.58;13.55;;;5.70;99.90;;;;;;4895810;29;20047;-78
2021/11/03 06:02:22;;;;;;;24.38;14.52;;;5.70;99.90;;;;;;4877178;29;20055;-78
2021/11/03 06:04:48;;;;;;;27.85;15.00;;;5.70;99.90;;;;;;4883424;29;20040;-78
2021/11/03 06:07:16;;;;;;;26.83;14.48;;;5.70;99.90;;;;;;4900211;29;20036;-78
2021/11/03 06:09:43;;;;;;;33.55;13.93;;;5.70;99.90;;;;;;4898103;29;20047;-78
2021/11/03 06:12:11;;;;;;;34.22;13.70;;;5.70;99.90;;;;;;4884547;29;20027;-78
2021/11/03 06:14:38;;;;;;;29.10;14.07;;;5.70;99.90;;;;;;4885110;29;20063;-78
2021/11/03 06:17:05;;;;;;;30.35;13.23;;;5.70;99.90;;;;;;4884886;29;20400;-78
2021/11/03 06:19:31;;;;;;;27.25;11.63;;;5.70;99.90;;;;;;4917670;29;20051;-78
2021/11/03 06:21:58;;;;;;;26.17;12.20;;;5.60;99.90;;;;;;4871280;29;20047;-78
2021/11/03 06:24:28;;;;;;;23.55;11.30;;;5.60;99.90;;;;;;4898998;29;20119;-78
2021/11/03 06:26:55;;;;;;;19.52;11.80;;;5.60;99.90;;;;;;4883855;29;20044;-78
2021/11/03 06:29:22;;;;;;;24.48;12.40;;;5.60;99.90;;;;;;4899969;29;20054;-77
2021/11/03 06:31:48;;;;;;;27.45;12.05;;;5.60;99.90;;;;;;4882552;29;20044;-78
2021/11/03 06:34:14;;;;;;;53.08;13.43;;;5.60;99.90;;;;;;4857085;29;20051;-78
2021/11/03 06:36:41;;;;;;;28.20;12.25;;;5.70;99.90;;;;;;4902677;29;20054;-78
2021/11/03 06:39:09;;;;;;;28.42;12.43;;;5.60;99.90;;;;;;4902592;29;20036;-78
2021/11/03 06:41:37;;;;;;;37.47;12.90;;;5.60;99.90;;;;;;4871665;29;20032;-79
2021/11/03 06:44:04;;;;;;;30.38;12.63;;;5.60;99.90;;;;;;4885375;29;20048;-80
2021/11/03 06:46:37;;;;;;;29.10;13.13;;;5.50;99.90;;;;;;4860515;29;20416;-80
2021/11/03 06:49:04;;;;;;;33.63;13.95;;;5.60;99.90;;;;;;4846223;29;20530;-78
2021/11/03 06:51:32;;;;;;;46.92;15.95;;;5.60;99.90;;;;;;4888099;29;20055;-79
2021/11/03 06:54:00;;;;;;;23.42;15.35;;;5.60;99.90;;;;;;4904110;29;20601;-77
2021/11/03 06:56:26;;;;;;;27.38;14.32;;;5.60;99.90;;;;;;4902063;29;20036;-78
2021/11/03 06:58:53;;;;;;;27.80;14.52;;;5.50;99.90;;;;;;4884112;29;20040;-78
2021/11/03 07:01:20;;;;;;;26.90;15.27;;;5.60;99.90;;;;;;4872362;29;20044;-78
2021/11/03 07:03:47;;;;;;;33.42;14.07;;;5.60;99.90;;;;;;4901106;29;20484;-78
2021/11/03 07:06:14;;;;;;;26.50;14.27;;;5.60;99.90;;;;;;4901203;29;20047;-78
2021/11/03 07:08:41;;;;;;;25.58;14.75;;;5.60;99.90;;;;;;4903440;29;20043;-79
2021/11/03 07:11:09;;;;;;;28.95;14.70;;;5.70;99.90;;;;;;4880347;29;20249;-79
2021/11/03 07:13:36;;;;;;;18.25;13.75;;;5.70;99.90;;;;;;4876966;29;20062;-78
2021/11/03 07:16:04;;;;;;;24.88;14.20;;;5.70;99.90;;;;;;4886917;29;20036;-78
2021/11/03 07:18:31;;;;;;;25.38;14.80;;;5.70;99.90;;;;;;4867498;29;20043;-79
2021/11/03 07:20:58;;;;;;;25.77;15.80;;;5.80;99.90;;;;;;4865377;29;20044;-77
2021/11/03 07:23:24;;;;;;;22.95;15.82;;;5.80;99.90;;;;;;4880784;29;20032;-78
2021/11/03 07:25:51;;;;;;;23.92;15.25;;;5.80;99.90;;;;;;4913296;29;20036;-76
2021/11/03 07:28:18;;;;;;;23.88;16.20;;;5.90;99.90;;;;;;4895642;29;20051;-78
2021/11/03 07:30:44;;;;;;;33.63;14.15;;;5.90;99.90;;;;;;4898027;29;20055;-79
2021/11/03 07:33:14;;;;;;;24.55;15.32;;;5.90;99.90;;;;;;4879513;29;20040;-79
2021/11/03 07:35:42;;;;;;;26.70;14.80;;;5.90;99.90;;;;;;4850450;29;20043;-85
2021/11/03 07:38:13;;;;;;;29.55;17.52;;;6.00;99.90;;;;;;4876355;29;20055;-81
2021/11/03 07:40:47;;;;;;;24.55;15.80;;;6.00;99.90;;;;;;4851728;29;20063;-81
2021/11/03 07:43:22;;;;;;;31.30;16.35;;;6.00;99.90;;;;;;4869795;29;20384;-80
2021/11/03 07:45:52;;;;;;;25.58;15.05;;;6.10;99.90;;;;;;4873427;29;20039;-80
2021/11/03 07:48:26;;;;;;;29.08;15.38;;;6.00;99.90;;;;;;4884745;29;20043;-79
2021/11/03 07:51:00;;;;;;;30.17;16.58;;;6.10;99.90;;;;;;4869927;29;20036;-80
2021/11/03 07:54:04;;;;;;;26.65;15.15;;;6.10;99.90;;;;;;4827140;29;20056;-82
2021/11/03 07:56:44;;;;;;;22.33;15.07;;;6.10;99.90;;;;;;4832591;29;20418;-79
2021/11/03 07:59:17;;;;;;;49.03;17.83;;;6.10;99.90;;;;;;4841954;29;20569;-81
2021/11/03 08:01:44;;;;;;;23.98;16.85;;;6.20;99.90;;;;;;4841592;29;20060;-80
2021/11/03 08:04:10;;;;;;;29.50;18.25;;;6.20;99.90;;;;;;4841175;29;20040;-79
2021/11/03 08:06:39;;;;;;;27.27;18.00;;;6.30;99.90;;;;;;4826004;29;20390;-79
2021/11/03 08:09:07;;;;;;;28.65;19.10;;;6.30;99.90;;;;;;4842238;29;20041;-78
2021/11/03 08:11:51;;;;;;;33.03;18.80;;;6.30;99.90;;;;;;4840630;29;20045;-78
2021/11/03 08:14:26;;;;;;;28.17;19.17;;;6.30;99.90;;;;;;4861172;29;20052;-81
2021/11/03 08:16:55;;;;;;;32.92;22.20;;;6.40;99.90;;;;;;4847682;29;20041;-76
2021/11/03 08:19:28;;;;;;;35.55;22.85;;;6.30;99.90;;;;;;4844122;29;20078;-80
2021/11/03 08:21:54;;;;;;;;;;;6.30;99.90;;;;;;4828321;29;20565;-78
2021/11/03 08:24:21;;;;;;;36.30;23.00;;;6.30;99.90;;;;;;4871123;29;19923;-78
2021/11/03 08:26:52;;;;;;;29.13;20.90;;;6.30;99.90;;;;;;4899050;29;20441;-80
2021/11/03 08:29:20;;;;;;;27.83;20.17;;;6.40;99.90;;;;;;4918901;29;20395;-80
2021/11/03 08:31:46;;;;;;;26.88;19.77;;;6.50;99.90;;;;;;4897474;29;20035;-80
2021/11/03 08:34:14;;;;;;;31.27;21.25;;;6.60;99.90;;;;;;4902323;29;20047;-79
2021/11/03 08:36:41;;;;;;;26.27;19.33;;;6.70;99.90;;;;;;4885694;29;20040;-81
2021/11/03 08:39:09;;;;;;;28.55;19.45;;;6.70;99.90;;;;;;4916630;29;20385;-81
2021/11/03 08:41:36;;;;;;;26.75;19.10;;;6.80;99.90;;;;;;4897506;29;20401;-80
2021/11/03 08:44:06;;;;;;;27.10;18.00;;;6.80;99.90;;;;;;4898537;29;20028;-85
2021/11/03 08:46:35;;;;;;;28.98;19.50;;;6.90;99.90;;;;;;4881981;29;20048;-87
2021/11/03 08:49:03;;;;;;;26.63;18.58;;;7.00;99.90;;;;;;4864727;29;20040;-84
2021/11/03 08:51:35;;;;;;;23.25;16.90;;;7.00;99.90;;;;;;4871388;29;20043;-88
2021/11/03 08:54:04;;;;;;;22.63;15.82;;;7.00;99.90;;;;;;4874830;29;20051;-84
2021/11/03 08:56:31;;;;;;;21.58;14.63;;;7.00;99.90;;;;;;4871914;29;20044;-88
2021/11/03 08:58:58;;;;;;;22.95;16.17;;;7.00;99.90;;;;;;4876900;29;20499;-86
2021/11/03 09:01:26;;;;;;;22.17;15.45;;;7.10;99.90;;;;;;4873904;29;20059;-85
2021/11/03 09:03:53;;;;;;;20.95;15.60;;;7.10;99.90;;;;;;4918973;29;20035;-86
2021/11/03 09:06:19;;;;;;;23.88;16.45;;;7.10;99.90;;;;;;4890460;29;20044;-84
2021/11/03 09:08:47;;;;;;;20.30;15.23;;;7.20;99.90;;;;;;4896191;29;20028;-86
2021/11/03 09:11:14;;;;;;;20.30;14.20;;;7.20;99.90;;;;;;4883461;29;20346;-86
2021/11/03 09:13:43;;;;;;;21.95;15.73;;;7.20;99.90;;;;;;4894929;29;20036;-87
2021/11/03 09:16:10;;;;;;;22.33;15.40;;;7.30;99.90;;;;;;4874915;29;20035;-85
2021/11/03 09:18:38;;;;;;;21.17;15.98;;;7.30;99.90;;;;;;4867357;29;20044;-85
2021/11/03 09:21:07;;;;;;;22.77;15.13;;;7.40;99.90;;;;;;4897921;29;20036;-87
2021/11/03 09:23:35;;;;;;;22.42;16.77;;;7.50;99.90;;;;;;4885426;29;20483;-85
2021/11/03 09:26:02;;;;;;;22.70;16.55;;;7.50;99.90;;;;;;4899054;29;20032;-87
2021/11/03 09:28:31;;;;;;;22.17;16.33;;;7.60;99.90;;;;;;4877608;29;20043;-88
2021/11/03 09:31:03;;;;;;;21.85;16.13;;;7.70;99.90;;;;;;4868778;29;20036;-87
2021/11/03 09:33:33;;;;;;;20.65;15.18;;;7.70;99.90;;;;;;4874194;29;20040;-87
2021/11/03 09:36:00;;;;;;;24.00;16.38;;;7.80;99.90;;;;;;4899175;29;20063;-88
2021/11/03 09:38:29;;;;;;;21.45;16.20;;;7.80;99.90;;;;;;4872631;29;20043;-86
2021/11/03 09:41:00;;;;;;;21.45;15.75;;;7.90;99.90;;;;;;4882449;29;20040;-87
2021/11/03 09:43:31;;;;;;;26.27;17.08;;;8.00;99.90;;;;;;4891075;29;20035;-87
2021/11/03 09:46:12;;;;;;;20.17;16.17;;;8.00;99.90;;;;;;4888281;29;20087;-88
2021/11/03 09:48:39;;;;;;;23.60;16.90;;;8.10;99.90;;;;;;4874800;29;20039;-86
2021/11/03 09:51:15;;;;;;;22.92;16.60;;;8.10;99.90;;;;;;4871225;29;20062;-81
2021/11/03 09:53:54;;;;;;;21.17;16.40;;;8.20;99.90;;;;;;4886848;29;20036;-82
2021/11/03 09:56:48;;;;;;;23.65;18.58;;;8.20;99.90;;;;;;4898351;29;20024;-84
2021/11/03 09:59:30;;;;;;;25.27;18.35;;;8.30;99.90;;;;;;4891016;29;20411;-82
2021/11/03 10:02:09;;;;;;;25.85;20.75;;;8.30;99.90;;;;;;4877015;29;20053;-82
2021/11/03 10:05:34;;;;;;;24.13;18.63;;;8.30;99.90;;;;;;4902016;29;20029;-82
2021/11/03 10:08:51;;;;;;;23.80;18.58;;;8.30;99.90;;;;;;4884678;29;20047;-84
2021/11/03 10:12:27;;;;;;;;;;;;;;;;;;;;;
2021/11/03 10:24:37;;;;;;;20.55;16.70;;;8.60;99.90;;;;;;4853126;29;19920;-82
2021/11/03 10:27:20;;;;;;;19.23;15.13;;;8.80;99.90;;;;;;4894653;29;20036;-84
2021/11/03 10:29:53;;;;;;;20.60;15.23;;;8.90;99.90;;;;;;4864269;29;20136;-83
2021/11/03 10:32:57;;;;;;;23.65;17.25;;;9.00;99.90;;;;;;4897926;29;20028;-83
2021/11/03 10:35:56;;;;;;;22.50;17.88;;;9.10;99.90;;;;;;4869340;29;20095;-85
2021/11/03 10:39:20;;;;;;;27.30;20.50;;;9.20;99.90;;;;;;4861356;29;20041;-84
2021/11/03 10:42:04;;;;;;;24.17;18.17;;;9.30;99.90;;;;;;4830720;29;20048;-83
2021/11/03 10:44:34;;;;;;;23.17;17.85;;;9.40;99.90;;;;;;4853855;29;20033;-84
2021/11/03 10:47:20;;;;;;;28.17;20.83;;;9.40;99.90;;;;;;4837584;29;20052;-83
2021/11/03 10:50:15;;;;;;;23.17;18.20;;;9.60;99.90;;;;;;4875560;29;20076;-83
2021/11/03 10:53:12;;;;;;;25.42;20.30;;;9.60;99.90;;;;;;4847241;29;20516;-83
2021/11/03 10:55:46;;;;;;;25.88;17.85;;;9.80;99.90;;;;;;4862763;29;20379;-80
2021/11/03 10:58:13;;;;;;;20.88;17.27;;;9.80;99.90;;;;;;4866010;29;20049;-84
2021/11/03 11:00:56;;;;;;;22.83;17.38;;;9.90;99.90;;;;;;4847526;29;20040;-83
2021/11/03 11:03:25;;;;;;;;;;;9.90;99.90;;;;;;4873989;29;20080;-83
2021/11/03 11:06:06;;;;;;;22.40;17.17;;;10.00;99.90;;;;;;4878838;29;19920;-84
2021/11/03 11:08:33;;;;;;;26.75;19.10;;;10.10;99.90;;;;;;4884291;29;20035;-84
2021/11/03 11:11:10;;;;;;;23.45;18.02;;;10.10;99.90;;;;;;4897597;29;20040;-84
2021/11/03 11:13:41;;;;;;;27.13;19.42;;;10.20;99.90;;;;;;4882607;29;20036;-84
2021/11/03 11:16:16;;;;;;;24.52;18.63;;;10.30;99.90;;;;;;4879238;29;20374;-84
2021/11/03 11:18:51;;;;;;;28.38;18.80;;;10.30;99.90;;;;;;4880580;29;20040;-84
2021/11/03 11:21:44;;;;;;;27.83;19.58;;;10.40;99.90;;;;;;4901402;29;20036;-84
2021/11/03 11:24:23;;;;;;;24.38;17.52;;;10.40;99.90;;;;;;4880248;29;20614;-84
2021/11/03 11:27:14;;;;;;;26.27;18.30;;;10.50;99.90;;;;;;4879745;29;20032;-87
2021/11/03 11:29:41;;;;;;;24.92;19.40;;;10.50;99.90;;;;;;4897399;29;20402;-84
2021/11/03 11:32:30;;;;;;;23.58;17.25;;;10.50;99.90;;;;;;4889550;29;20500;-87
2021/11/03 11:35:19;;;;;;;23.45;18.08;;;10.60;99.90;;;;;;4862619;29;20485;-85
2021/11/03 11:38:20;;;;;;;23.80;18.27;;;10.60;99.90;;;;;;4877788;29;20048;-85
2021/11/03 11:41:14;;;;;;;25.33;19.48;;;10.70;99.90;;;;;;4852630;29;20070;-84
2021/11/03 11:44:12;;;;;;;32.00;19.88;;;10.80;99.90;;;;;;4882112;29;20053;-83
2021/11/03 11:46:40;;;;;;;23.80;18.77;;;10.80;99.90;;;;;;4886029;29;20028;-85
2021/11/03 11:49:39;;;;;;;23.95;18.95;;;10.80;99.90;;;;;;4880321;29;20028;-79
2021/11/03 11:52:24;;;;;;;23.05;18.40;;;10.80;99.90;;;;;;4888014;29;20039;-82
2021/11/03 11:55:05;;;;;;;23.43;17.90;;;10.80;99.90;;;;;;4864283;29;20032;-84
2021/11/03 11:57:35;;;;;;;22.73;17.08;;;10.80;99.90;;;;;;4857581;29;20624;-84
2021/11/03 12:00:10;;;;;;;25.08;18.65;;;10.90;99.90;;;;;;4891293;29;20361;-85
2021/11/03 12:02:51;;;;;;;22.33;17.67;;;10.90;99.90;;;;;;4866409;29;20052;-84
2021/11/03 12:05:21;;;;;;;23.95;19.85;;;10.90;99.90;;;;;;4864751;29;20418;-84
2021/11/03 12:08:10;;;;;;;23.33;18.83;;;10.90;99.90;;;;;;4883001;29;20042;-84
2021/11/03 12:10:41;;;;;;;26.02;19.08;;;11.00;99.90;;;;;;4884460;29;20028;-83
2021/11/03 12:13:29;;;;;;;22.58;17.42;;;11.00;99.90;;;;;;4902295;29;20050;-84
2021/11/03 12:16:08;;;;;;;21.30;18.35;;;11.00;99.90;;;;;;4861707;29;20025;-85
2021/11/03 12:18:37;;;;;;;22.08;17.95;;;11.10;99.90;;;;;;4860541;29;20029;-85
2021/11/03 12:21:03;;;;;;;22.92;17.63;;;11.10;99.90;;;;;;4883915;29;20037;-86
2021/11/03 12:23:50;;;;;;;22.05;16.85;;;11.10;99.90;;;;;;4866659;29;20036;-82
2021/11/03 12:26:25;;;;;;;21.20;18.15;;;11.20;99.90;;;;;;4900569;29;20051;-81
2021/11/03 12:29:11;;;;;;;24.52;17.92;;;11.20;99.90;;;;;;4900177;29;20043;-90
2021/11/03 12:31:47;;;;;;;26.45;22.20;;;11.20;99.90;;;;;;4859066;29;20067;-87
2021/11/03 12:34:28;;;;;;;33.05;24.67;;;11.20;99.90;;;;;;4867224;29;20475;-87
2021/11/03 12:36:59;;;;;;;25.98;20.33;;;11.10;99.90;;;;;;4865519;29;20059;-86
2021/11/03 12:39:28;;;;;;;25.23;19.45;;;11.00;99.90;;;;;;4871217;29;20049;-83
2021/11/03 12:42:01;;;;;;;22.40;18.13;;;11.00;99.90;;;;;;4872619;29;20033;-82
2021/11/03 12:44:44;;;;;;;20.77;17.00;;;11.00;99.90;;;;;;4881674;29;20025;-84
2021/11/03 12:48:02;;;;;;;;;;;;;;;;;;;;;
2021/11/03 12:51:32;;;;;;;23.05;17.83;;;11.00;99.90;;;;;;4896404;29;20043;-87
2021/11/03 12:54:01;;;;;;;21.25;17.15;;;11.00;99.90;;;;;;4863504;29;20037;-85
2021/11/03 12:56:37;;;;;;;22.50;17.88;;;11.00;99.90;;;;;;4852779;29;20041;-87
2021/11/03 12:59:20;;;;;;;22.45;18.40;;;11.00;99.90;;;;;;4871451;29;20511;-89
2021/11/03 13:02:35;;;;;;;;;;;;;;;;;;;;;
2021/11/03 13:05:52;;;;;;;22.48;18.80;;;11.10;99.90;;;;;;4899419;29;20040;-88
2021/11/03 13:09:07;;;;;;;22.88;18.58;;;11.00;99.90;;;;;;4886600;29;20452;-84
2021/11/03 13:12:19;;;;;;;23.10;17.17;;;11.00;99.90;;;;;;4870104;29;20036;-84
2021/11/03 13:15:49;;;;;;;23.38;18.15;;;11.00;99.90;;;;;;4873568;29;20040;-85
2021/11/03 13:18:36;;;;;;;25.05;19.95;;;10.90;99.90;;;;;;4866183;29;20032;-86
2021/11/03 13:21:33;;;;;;;24.45;19.05;;;10.90;99.90;;;;;;4886861;29;20054;-86